Weather observations for the past three days for
Sturgis, Kirsch Municipal Airport
| Date | Time (edt) | Wind (mph) | Vis. (mi.) | Weather | Sky Cond. | Temperature (ºF) | Relative Humidity | Wind Chill (°F) | Heat Index (°F) | Pressure | Precipitation (in) | ||||||
|---|---|---|---|---|---|---|---|---|---|---|---|---|---|---|---|---|---|
| Air | Dwpt | 6 hour | altimeter (in) | sea level (mb) | 1 hr | 3 hr | 6 hr | ||||||||||
| Max. | Min. | ||||||||||||||||
| 08 | 06:55 | S 3 | 1.50 | Fog/Mist | BKN090 | 39.2 | 39.2 | 100% | 29.87 | 0.0 | |||||||
| 08 | 06:36 | S 2 | 0.15 | Fog | BKN090 | 39.2 | 39.2 | 100% | 29.86 | 0.0 | |||||||
| 08 | 06:15 | S 2 | 0.75 | Fog/Mist | VV005 | 39.2 | 37.4 | 93% | 29.86 | 0.0 | |||||||
| 08 | 05:55 | SW 3 | 4.00 | Fog/Mist | CLR | 39.2 | 37.4 | 93% | 29.86 | 0.0 | |||||||
| 08 | 05:35 | S 1 | 4.00 | Fog/Mist | CLR | 39.2 | 39.2 | 100% | 29.86 | 0.0 | |||||||
| 08 | 05:15 | Calm | 2.00 | Fog/Mist | CLR | 41 | 41 | 100% | 29.86 | 0.0 | |||||||
| 08 | 04:55 | SW 1 | 3.00 | Fog/Mist | CLR | 41 | 39.2 | 93% | 29.86 | 0.0 | |||||||
| 08 | 04:35 | SW 1 | 5.00 | Fog/Mist | CLR | 41 | 39.2 | 93% | 29.86 | 0.0 | |||||||
| 08 | 04:16 | S 3 | 6.00 | Fog/Mist | FEW095 | 41 | 41 | 100% | 29.86 | 0.0 | |||||||
| 08 | 03:55 | SW 2 | 9.00 | Partly Cloudy | SCT095 | 41 | 41 | 100% | 29.86 | 0.0 | |||||||
| 08 | 03:35 | SW 3 | 8.00 | Partly Cloudy | SCT095 | 41 | 41 | 100% | 29.87 | 0.0 | |||||||
| 08 | 03:15 | S 3 | 6.00 | Fog/Mist | FEW095 | 42.8 | 41 | 93% | 29.86 | 0.0 | |||||||
| 08 | 02:55 | SW 3 | 8.00 | Fair | CLR | 42.8 | 41 | 93% | 29.87 | 0.0 | |||||||
| 08 | 02:35 | S 3 | 7.00 | Fog/Mist | CLR | 42.8 | 41 | 93% | 29.87 | 0.0 | |||||||
| 08 | 02:15 | S 3 | 10.00 | Fair | CLR | 42.8 | 41 | 93% | 29.87 | 0.0 | |||||||
| 08 | 01:56 | S 3 | 10.00 | Fair | CLR | 42.8 | 41 | 93% | 29.88 | 0.0 | |||||||
| 08 | 01:35 | S 5 | 10.00 | Fair | CLR | 42.8 | 41 | 93% | 41 | 29.88 | 0.0 | ||||||
| 08 | 01:15 | S 3 | 10.00 | A Few Clouds | FEW070 | 42.8 | 41 | 93% | 29.88 | 0.0 | |||||||
| 08 | 00:55 | S 3 | 10.00 | Fair | CLR | 42.8 | 41 | 93% | 29.88 | 0.0 | |||||||
| 08 | 00:35 | S 5 | 10.00 | Partly Cloudy | SCT075 SCT085 | 44.6 | 41 | 87% | 43 | 29.88 | 0.0 | ||||||
| 08 | 00:15 | S 6 | 10.00 | Partly Cloudy | SCT085 | 44.6 | 41 | 87% | 42 | 29.88 | 0.0 | ||||||
| 07 | 23:55 | S 7 | 10.00 | A Few Clouds | FEW085 | 44.6 | 41 | 87% | 41 | 29.88 | 0.0 | ||||||
| 07 | 23:36 | S 7 | 10.00 | Fair | CLR | 44.6 | 41 | 87% | 41 | 29.87 | 0.0 | ||||||
| 07 | 23:15 | S 6 | 10.00 | Fair | CLR | 44.6 | 41 | 87% | 42 | 29.87 | 0.0 | ||||||
| 07 | 22:55 | S 7 | 10.00 | Fair | CLR | 44.6 | 41 | 87% | 41 | 29.88 | 0.0 | ||||||
| 07 | 22:35 | S 8 | 10.00 | Fair | CLR | 44.6 | 41 | 87% | 41 | 29.88 | 0.0 | ||||||
| 07 | 22:15 | SW 8 | 10.00 | Fair | CLR | 44.6 | 41 | 87% | 41 | 29.88 | 0.0 | ||||||
| 07 | 21:55 | S 9 | 10.00 | A Few Clouds | FEW120 | 46.4 | 41 | 82% | 42 | 29.88 | 0.0 | ||||||
| 07 | 21:35 | SW 10 | 10.00 | Mostly Cloudy | SCT075 SCT100 BKN120 | 48.2 | 41 | 76% | 44 | 29.88 | 0.0 | ||||||
| 07 | 21:16 | SW 3 | 10.00 | Light Rain | BKN043 BKN050 OVC070 | 48.2 | 41 | 76% | 29.87 | 0.0 | |||||||
| 07 | 20:55 | S 2 | 10.00 | Light Rain | SCT043 BKN050 BKN070 | 48.2 | 42.8 | 82% | 29.88 | 0.0 | |||||||
| 07 | 20:35 | S 7 | 10.00 | Light Drizzle | SCT050 BKN075 BKN085 | 48.2 | 42.8 | 82% | 46 | 29.87 | 0.0 | ||||||
| 07 | 20:15 | SW 12 | 10.00 | Light Rain | BKN046 BKN065 OVC085 | 50 | 41 | 71% | 46 | 29.87 | 0.0 | ||||||
| 07 | 19:55 | SW 10 | 10.00 | Light Rain | BKN055 BKN075 BKN110 | 50 | 39.2 | 57.9 | 50.4 | 67% | 46 | 29.86 | 0.0 | ||||
| 07 | 19:35 | SW 16 G 24 | 10.00 | Partly Cloudy | SCT046 SCT075 | 51.8 | 39.2 | 62% | 29.86 | 0.0 | |||||||
| 07 | 19:15 | SW 16 | 10.00 | Partly Cloudy | SCT046 | 51.8 | 37.4 | 58% | 29.86 | 0.0 | |||||||
| 07 | 18:56 | SW 16 | 10.00 | A Few Clouds | FEW060 FEW100 | 53.6 | 35.6 | 51% | 29.86 | 0.0 | |||||||
| 07 | 18:35 | SW 21 G 26 | 10.00 | Mostly Cloudy and Breezy | SCT060 BKN075 | 55.4 | 35.6 | 47% | 29.86 | 0.0 | |||||||
| 07 | 18:15 | SW 18 G 23 | 10.00 | Overcast | OVC060 | 53.6 | 33.8 | 47% | 29.86 | 0.0 | |||||||
| 07 | 17:55 | SW 15 G 20 | 10.00 | Overcast | OVC070 | 53.6 | 33.8 | 47% | 29.87 | 0.0 | |||||||
| 07 | 17:35 | SW 14 | 10.00 | Overcast | OVC070 | 53.6 | 33.8 | 47% | 29.87 | 0.0 | |||||||
| 07 | 17:15 | SW 9 | 10.00 | Overcast | FEW045 SCT060 OVC065 | 53.6 | 32 | 44% | 29.88 | 0.0 | |||||||
| 07 | 16:55 | W 14 G 20 | 10.00 | Mostly Cloudy | SCT070 BKN080 | 55.4 | 30.2 | 38% | 29.88 | 0.0 | |||||||
| 07 | 16:36 | W 10 G 16 | 10.00 | A Few Clouds | FEW070 FEW080 | 57.2 | 30.2 | 36% | 29.88 | 0.0 | |||||||
| 07 | 16:15 | W 14 G 24 | 10.00 | A Few Clouds | FEW070 FEW090 | 57.2 | 30.2 | 36% | 29.89 | 0.0 | |||||||
| 07 | 15:55 | W 13 | 10.00 | Partly Cloudy | FEW070 SCT090 | 57.2 | 30.2 | 36% | 29.89 | 0.0 | |||||||
| 07 | 15:35 | W 12 | 10.00 | Fair | CLR | 55.4 | 30.2 | 38% | 29.9 | 0.0 | |||||||
| 07 | 15:15 | W 7 | 10.00 | Fair | CLR | 57.2 | 30.2 | 36% | 29.91 | 0.0 | |||||||
| 07 | 14:55 | W 9 G 18 | 10.00 | Fair | CLR | 55.4 | 28.4 | 36% | 29.91 | 0.0 | |||||||
| 07 | 14:35 | W 14 G 24 | 10.00 | Fair | CLR | 55.4 | 30.2 | 38% | 29.92 | 0.0 | |||||||
| 07 | 14:16 | W 12 G 21 | 10.00 | Partly Cloudy | SCT060 | 53.6 | 30.2 | 41% | 29.93 | 0.0 | |||||||
| 07 | 13:55 | NW 15 G 21 | 10.00 | A Few Clouds | FEW060 | 53.6 | 30.2 | 54.3 | 41.2 | 41% | 29.93 | 0.0 | |||||
| 07 | 13:35 | NW 12 G 18 | 10.00 | A Few Clouds | FEW060 | 53.6 | 30.2 | 41% | 29.93 | 0.0 | |||||||
| 07 | 13:15 | NW 12 G 20 | 10.00 | A Few Clouds | FEW060 | 53.6 | 30.2 | 41% | 29.94 | 0.0 | |||||||
| 07 | 12:55 | W 12 | 10.00 | A Few Clouds | FEW055 | 51.8 | 28.4 | 41% | 29.95 | 0.0 | |||||||
| 07 | 12:35 | W 16 G 22 | 10.00 | Mostly Cloudy | SCT055 BKN075 | 51.8 | 30.2 | 44% | 29.96 | 0.0 | |||||||
| 07 | 12:15 | NW 12 G 18 | 10.00 | Mostly Cloudy | BKN075 | 51.8 | 30.2 | 44% | 29.97 | 0.0 | |||||||
| 07 | 11:56 | W 14 G 20 | 10.00 | A Few Clouds | FEW075 | 51.8 | 30.2 | 44% | 29.97 | 0.0 | |||||||
| 07 | 11:35 | W 13 G 17 | 10.00 | Fair | CLR | 50 | 30.2 | 47% | 46 | 29.96 | 0.0 | ||||||
| 07 | 11:15 | NW 14 | 10.00 | Fair | CLR | 50 | 28.4 | 43% | 45 | 29.96 | 0.0 | ||||||
| 07 | 10:55 | NW 12 | 10.00 | Fair | CLR | 48.2 | 28.4 | 46% | 44 | 29.96 | 0.0 | ||||||
| 07 | 10:35 | W 14 | 10.00 | Fair | CLR | 48.2 | 30.2 | 50% | 43 | 29.96 | 0.0 | ||||||
| 07 | 10:15 | W 14 G 18 | 10.00 | Fair | CLR | 46.4 | 28.4 | 50% | 41 | 29.96 | 0.0 | ||||||
| 07 | 09:55 | W 12 G 20 | 10.00 | Fair | CLR | 46.4 | 28.4 | 50% | 42 | 29.96 | 0.0 | ||||||
| 07 | 09:36 | W 15 | 10.00 | Fair | CLR | 46.4 | 28.4 | 50% | 41 | 29.97 | 0.0 | ||||||
| 07 | 09:15 | W 9 | 10.00 | Fair | CLR | 44.6 | 32 | 61% | 40 | 29.96 | 0.0 | ||||||
| 07 | 08:55 | Vrbl 7 | 10.00 | Fair | CLR | 44.6 | 32 | 61% | 41 | 29.96 | 0.0 | ||||||
| 07 | 08:35 | W 8 | 10.00 | Fair | CLR | 42.8 | 32 | 66% | 39 | 29.96 | 0.0 | ||||||
| 07 | 08:15 | W 9 | 10.00 | Fair | CLR | 42.8 | 32 | 66% | 38 | 29.96 | 0.0 | ||||||
| 07 | 07:55 | W 9 | 10.00 | Fair | CLR | 41 | 33.8 | 45.5 | 37.6 | 76% | 36 | 29.96 | 0.0 | ||||
| 07 | 07:35 | W 6 | 10.00 | Fair | CLR | 39.2 | 33.8 | 81% | 36 | 29.95 | 0.0 | ||||||
| 07 | 07:16 | SW 5 | 10.00 | Fair | CLR | 37.4 | 32 | 81% | 34 | 29.95 | 0.0 | ||||||
| 07 | 06:55 | W 6 | 10.00 | Fair | CLR | 37.4 | 32 | 81% | 33 | 29.94 | 0.0 | ||||||
| 07 | 06:35 | W 6 | 10.00 | Fair | CLR | 39.2 | 32 | 75% | 36 | 29.94 | 0.0 | ||||||
| 07 | 06:15 | W 5 | 10.00 | Fair | CLR | 39.2 | 32 | 75% | 36 | 29.94 | 0.0 | ||||||
| 07 | 05:55 | W 6 | 10.00 | Fair | CLR | 39.2 | 32 | 75% | 36 | 29.93 | 0.0 | ||||||
| 07 | 05:35 | W 6 | 10.00 | Fair | CLR | 39.2 | 30.2 | 70% | 36 | 29.93 | 0.0 | ||||||
| 07 | 05:15 | NW 6 | 10.00 | Fair | CLR | 39.2 | 30.2 | 70% | 36 | 29.93 | 0.0 | ||||||
| 07 | 04:56 | NW 5 | 10.00 | Fair | CLR | 41 | 30.2 | 66% | 38 | 29.93 | 0.0 | ||||||
| 07 | 04:35 | NW 7 | 10.00 | Fair | CLR | 41 | 32 | 70% | 37 | 29.93 | 0.0 | ||||||
| 07 | 04:15 | W 6 | 10.00 | Fair | CLR | 41 | 32 | 70% | 38 | 29.93 | 0.0 | ||||||
| 07 | 03:55 | NW 6 | 10.00 | Fair | CLR | 41 | 30.2 | 66% | 38 | 29.93 | 0.0 | ||||||
| 07 | 03:35 | W 6 | 10.00 | Fair | CLR | 42.8 | 30.2 | 61% | 40 | 29.93 | 0.0 | ||||||
| 07 | 03:15 | W 7 | 10.00 | Fair | CLR | 42.8 | 30.2 | 61% | 39 | 29.93 | 0.0 | ||||||
| 07 | 02:55 | W 7 | 10.00 | A Few Clouds | FEW075 | 42.8 | 30.2 | 61% | 39 | 29.93 | 0.0 | ||||||
| 07 | 02:36 | W 8 | 10.00 | Mostly Cloudy | BKN075 | 44.6 | 30.2 | 57% | 41 | 29.93 | 0.0 | ||||||
| 07 | 02:15 | W 7 | 10.00 | Overcast | OVC075 | 44.6 | 32 | 61% | 41 | 29.94 | 0.0 | ||||||
| 07 | 01:55 | W 8 | 10.00 | Overcast | OVC075 | 44.6 | 32 | 52 | 44.1 | 61% | 41 | 29.94 | 0.0 | ||||
| 07 | 01:35 | W 7 | 10.00 | Mostly Cloudy | BKN075 | 44.6 | 32 | 61% | 41 | 29.94 | 0.0 | ||||||
| 07 | 01:15 | W 8 | 10.00 | Mostly Cloudy | BKN065 | 46.4 | 32 | 57% | 43 | 29.94 | 0.0 | ||||||
| 07 | 00:55 | W 6 | 10.00 | Partly Cloudy | SCT065 | 44.6 | 32 | 61% | 42 | 29.94 | 0.0 | ||||||
| 07 | 00:35 | W 5 | 10.00 | Partly Cloudy | SCT085 | 46.4 | 32 | 57% | 45 | 29.93 | 0.0 | ||||||
| 07 | 00:16 | W 5 | 10.00 | Overcast | OVC085 | 46.4 | 32 | 57% | 45 | 29.93 | 0.0 | ||||||
| 06 | 23:55 | W 8 | 10.00 | Overcast | OVC085 | 48.2 | 32 | 54% | 45 | 29.93 | 0.0 | ||||||
| 06 | 23:35 | W 8 | 10.00 | Overcast | OVC085 | 48.2 | 32 | 54% | 45 | 29.93 | 0.0 | ||||||
| 06 | 23:15 | W 7 | 10.00 | Overcast | OVC085 | 48.2 | 33.8 | 58% | 46 | 29.93 | 0.0 | ||||||
| 06 | 22:55 | SW 2 | 10.00 | Overcast | BKN070 OVC085 | 48.2 | 35.6 | 62% | 29.93 | 0.0 | |||||||
| 06 | 22:35 | SW 3 | 10.00 | Overcast | OVC070 | 48.2 | 35.6 | 62% | 29.93 | 0.0 | |||||||
| 06 | 22:15 | SW 3 | 10.00 | Overcast | OVC070 | 50 | 33.8 | 54% | 29.93 | 0.0 | |||||||
| 06 | 21:56 | SW 3 | 10.00 | Overcast | BKN070 OVC080 | 50 | 32 | 50% | 29.92 | 0.0 | |||||||
| 06 | 21:35 | W 2 | 10.00 | Overcast | BKN070 OVC080 | 50 | 32 | 50% | 29.92 | 0.0 | |||||||
| 06 | 21:15 | W 2 | 10.00 | Overcast | BKN070 OVC085 | 50 | 30.2 | 47% | 29.92 | 0.0 | |||||||
| 06 | 20:55 | NW 3 | 10.00 | Overcast | OVC085 | 50 | 28.4 | 43% | 29.92 | 0.0 | |||||||
| 06 | 20:35 | NW 5 | 10.00 | Overcast | FEW070 SCT075 OVC085 | 51.8 | 28.4 | 41% | 29.91 | 0.0 | |||||||
| 06 | 20:15 | NW 6 | 10.00 | Overcast | BKN070 OVC085 | 51.8 | 28.4 | 41% | 29.92 | 0.0 | |||||||
| 06 | 19:55 | NW 7 | 10.00 | Overcast | BKN070 OVC085 | 51.8 | 28.4 | 56.3 | 51.6 | 41% | 29.91 | 0.0 | |||||
| 06 | 19:36 | NW 8 | 10.00 | Overcast | BKN080 OVC085 | 51.8 | 28.4 | 41% | 29.91 | 0.0 | |||||||
| 06 | 19:15 | W 10 | 10.00 | Overcast | OVC080 | 53.6 | 28.4 | 38% | 29.91 | 0.0 | |||||||
| 06 | 18:55 | W 10 | 10.00 | Mostly Cloudy | BKN070 BKN080 | 53.6 | 28.4 | 38% | 29.91 | 0.0 | |||||||
| 06 | 18:35 | W 8 | 10.00 | Mostly Cloudy | BKN070 | 53.6 | 28.4 | 38% | 29.91 | 0.0 | |||||||
| 06 | 18:15 | W 8 | 10.00 | Mostly Cloudy | BKN070 | 53.6 | 28.4 | 38% | 29.91 | 0.0 | |||||||
| 06 | 17:55 | W 8 | 10.00 | Overcast | OVC070 | 53.6 | 26.6 | 35% | 29.91 | 0.0 | |||||||
| 06 | 17:35 | W 12 | 10.00 | Mostly Cloudy | BKN070 | 53.6 | 26.6 | 35% | 29.91 | 0.0 | |||||||
| 06 | 17:16 | W 14 G 21 | 10.00 | A Few Clouds | FEW070 | 53.6 | 26.6 | 35% | 29.91 | 0.0 | |||||||
| 06 | 16:55 | NW 13 G 17 | 10.00 | A Few Clouds | FEW070 | 53.6 | 26.6 | 35% | 29.91 | 0.0 | |||||||
| 06 | 16:35 | W 14 | 10.00 | Fair | CLR | 53.6 | 28.4 | 38% | 29.91 | 0.0 | |||||||
| 06 | 16:15 | W 15 G 20 | 10.00 | A Few Clouds | FEW065 | 53.6 | 26.6 | 35% | 29.92 | 0.0 | |||||||
| 06 | 15:55 | NW 13 G 21 | 10.00 | Partly Cloudy | SCT065 | 55.4 | 28.4 | 36% | 29.92 | 0.0 | |||||||
| 06 | 15:35 | NW 12 | 10.00 | Mostly Cloudy | BKN065 | 53.6 | 28.4 | 38% | 29.92 | 0.0 | |||||||
| 06 | 15:15 | W 10 G 20 | 10.00 | A Few Clouds | FEW065 | 55.4 | 30.2 | 38% | 29.92 | 0.0 | |||||||
| 06 | 14:56 | W 8 | 10.00 | Partly Cloudy | SCT065 | 55.4 | 30.2 | 38% | 29.92 | 0.0 | |||||||
| 06 | 14:35 | W 10 G 17 | 10.00 | Partly Cloudy | SCT065 | 53.6 | 28.4 | 38% | 29.92 | 0.0 | |||||||
| 06 | 14:15 | NW 13 | 10.00 | A Few Clouds | FEW065 | 53.6 | 28.4 | 38% | 29.92 | 0.0 | |||||||
| 06 | 13:55 | W 14 G 18 | 10.00 | A Few Clouds | FEW065 | 53.6 | 26.6 | 54.5 | 43.3 | 35% | 29.92 | 0.0 | |||||
| 06 | 13:35 | W 8 G 17 | 10.00 | A Few Clouds | FEW065 | 53.6 | 26.6 | 35% | 29.92 | 0.0 | |||||||
| 06 | 13:15 | Vrbl 5 | 10.00 | Fair | CLR | 53.6 | 26.6 | 35% | 29.92 | 0.0 | |||||||
| 06 | 12:55 | NW 8 | 10.00 | Fair | CLR | 53.6 | 28.4 | 38% | 29.92 | 0.0 | |||||||
| 06 | 12:36 | Vrbl 6 | 10.00 | Fair | CLR | 51.8 | 24.8 | 35% | 29.93 | 0.0 | |||||||
| 06 | 12:15 | N 8 | 10.00 | Fair | CLR | 51.8 | 24.8 | 35% | 29.93 | 0.0 | |||||||
| 06 | 11:55 | NW 6 | 10.00 | Fair | CLR | 50 | 24.8 | 37% | 48 | 29.93 | 0.0 | ||||||
| 06 | 11:35 | NW 10 | 10.00 | Fair | CLR | 50 | 24.8 | 37% | 46 | 29.93 | 0.0 | ||||||
| 06 | 11:15 | N 12 | 10.00 | Fair | CLR | 50 | 24.8 | 37% | 46 | 29.93 | 0.0 | ||||||
| 06 | 10:55 | N 8 | 10.00 | Fair | CLR | 50 | 24.8 | 37% | 47 | 29.93 | 0.0 | ||||||
| 06 | 10:35 | NW 9 | 10.00 | Fair | CLR | 50 | 24.8 | 37% | 47 | 29.92 | 0.0 | ||||||
| 06 | 10:16 | NW 12 | 10.00 | Fair | CLR | 50 | 24.8 | 37% | 46 | 29.92 | 0.0 | ||||||
| 06 | 09:55 | N 8 | 10.00 | Fair | CLR | 48.2 | 26.6 | 43% | 45 | 29.91 | 0.0 | ||||||
| 06 | 09:35 | NW 10 | 10.00 | Fair | CLR | 48.2 | 26.6 | 43% | 44 | 29.91 | 0.0 | ||||||
| 06 | 09:15 | N 10 | 10.00 | Fair | CLR | 48.2 | 28.4 | 46% | 44 | 29.9 | 0.0 | ||||||
| 06 | 08:55 | N 12 | 10.00 | Fair | CLR | 46.4 | 28.4 | 50% | 42 | 29.89 | 0.0 | ||||||
| 06 | 08:35 | N 7 | 10.00 | Fair | CLR | 46.4 | 28.4 | 50% | 43 | 29.9 | 0.0 | ||||||
| 06 | 08:15 | N 8 | 10.00 | Fair | CLR | 44.6 | 28.4 | 53% | 41 | 29.89 | 0.0 | ||||||
| 06 | 07:56 | N 8 | 10.00 | Fair | CLR | 42.8 | 30.2 | 61% | 39 | 29.88 | 0.0 | ||||||
| 06 | 07:35 | N 2 | 10.00 | Fair | CLR | 42.8 | 30.2 | 61% | 29.86 | 0.0 | |||||||
| 06 | 07:15 | N 3 | 10.00 | Fair | CLR | 41 | 30.2 | 66% | 29.86 | 0.0 | |||||||
| 06 | 06:55 | N 3 | 10.00 | Fair | CLR | 41 | 30.2 | 66% | 29.85 | 0.0 | |||||||
| 06 | 06:35 | NW 3 | 10.00 | Fair | CLR | 41 | 30.2 | 66% | 29.85 | 0.0 | |||||||
| 06 | 06:15 | NW 2 | 10.00 | Fair | CLR | 41 | 30.2 | 66% | 29.84 | 0.0 | |||||||
| 06 | 05:55 | N 3 | 10.00 | Fair | CLR | 41 | 30.2 | 66% | 29.84 | 0.0 | |||||||
| 06 | 05:36 | N 5 | 10.00 | Fair | CLR | 42.8 | 32 | 66% | 41 | 29.83 | 0.0 | ||||||
| 06 | 05:15 | N 5 | 10.00 | A Few Clouds | FEW120 | 42.8 | 32 | 66% | 41 | 29.84 | 0.0 | ||||||
| 06 | 04:55 | N 7 | 10.00 | Mostly Cloudy | BKN120 | 44.6 | 32 | 61% | 41 | 29.83 | 0.0 | ||||||
| 06 | 04:35 | N 8 | 10.00 | Overcast | FEW100 OVC120 | 44.6 | 32 | 61% | 41 | 29.82 | 0.0 | ||||||
| 06 | 04:15 | N 8 | 10.00 | Overcast | BKN100 OVC120 | 46.4 | 33.8 | 62% | 43 | 29.81 | 0.0 | ||||||
| 06 | 03:55 | N 9 | 10.00 | Overcast | OVC100 | 46.4 | 33.8 | 62% | 42 | 29.81 | 0.0 | ||||||
| 06 | 03:35 | N 6 | 10.00 | Overcast | OVC110 | 46.4 | 35.6 | 66% | 44 | 29.8 | 0.0 | ||||||
| 06 | 03:16 | N 5 | 10.00 | Overcast | OVC110 | 46.4 | 35.6 | 66% | 45 | 29.81 | 0.0 | ||||||
| 06 | 02:55 | NW 6 | 10.00 | Overcast | BKN095 OVC110 | 46.4 | 35.6 | 66% | 44 | 29.82 | 0.0 | ||||||
| 06 | 02:35 | NW 3 | 10.00 | Overcast | SCT095 OVC120 | 46.4 | 35.6 | 66% | 29.82 | 0.0 | |||||||
| 06 | 02:15 | NW 3 | 10.00 | Overcast | SCT085 OVC120 | 46.4 | 37.4 | 71% | 29.81 | 0.0 | |||||||
| 06 | 01:55 | NW 3 | 10.00 | Overcast | OVC085 | 46.4 | 37.4 | 49.6 | 46.4 | 71% | 29.82 | 0.0 | |||||
| 06 | 01:35 | NW 3 | 10.00 | Overcast | OVC085 | 46.4 | 35.6 | 66% | 29.83 | 0.0 | |||||||
| 06 | 01:15 | NW 3 | 10.00 | Overcast | OVC085 | 46.4 | 35.6 | 66% | 29.82 | 0.0 | |||||||
| 06 | 00:56 | NW 3 | 10.00 | Overcast | OVC085 | 46.4 | 37.4 | 71% | 29.82 | 0.0 | |||||||
| 06 | 00:35 | NW 3 | 10.00 | Overcast | OVC110 | 46.4 | 41 | 82% | 29.81 | 0.0 | |||||||
| 06 | 00:15 | N 2 | 10.00 | Overcast | OVC110 | 46.4 | 41 | 82% | 29.8 | 0.0 | |||||||
| 05 | 23:55 | NW 2 | 10.00 | Overcast | OVC110 | 46.4 | 41 | 82% | 29.81 | 0.0 | |||||||
| 05 | 23:35 | N 2 | 10.00 | Overcast | OVC110 | 46.4 | 41 | 82% | 29.81 | 0.0 | |||||||
| 05 | 23:15 | W 2 | 10.00 | Overcast | OVC090 | 48.2 | 39.2 | 71% | 29.81 | 0.0 | |||||||
| 05 | 22:55 | W 1 | 10.00 | Overcast | OVC090 | 48.2 | 37.4 | 66% | 29.81 | 0.0 | |||||||
| 05 | 22:36 | NW 1 | 10.00 | Overcast | OVC080 | 48.2 | 37.4 | 66% | 29.8 | 0.0 | |||||||
| 05 | 22:15 | NW 1 | 10.00 | Overcast | OVC080 | 48.2 | 32 | 54% | 29.81 | 0.0 | |||||||
| 05 | 21:55 | NW 2 | 10.00 | Overcast | OVC080 | 48.2 | 35.6 | 62% | 29.8 | 0.0 | |||||||
| 05 | 21:35 | N 2 | 10.00 | Overcast | OVC080 | 48.2 | 37.4 | 66% | 29.79 | 0.0 | |||||||
| 05 | 21:15 | N 2 | 10.00 | Overcast | OVC080 | 48.2 | 35.6 | 62% | 29.79 | 0.0 | |||||||
| 05 | 20:55 | N 2 | 10.00 | Overcast | OVC080 | 48.2 | 33.8 | 58% | 29.78 | 0.0 | |||||||
| 05 | 20:35 | N 3 | 10.00 | Overcast | OVC090 | 50 | 33.8 | 54% | 29.78 | 0.0 | |||||||
| 05 | 20:16 | N 3 | 10.00 | Overcast | OVC090 | 50 | 32 | 50% | 29.78 | 0.0 | |||||||
| 05 | 19:55 | N 5 | 10.00 | Overcast | OVC090 | 50 | 33.8 | 54 | 49.5 | 54% | 49 | 29.78 | 0.0 | ||||
| 05 | 19:35 | NW 2 | 10.00 | Overcast | OVC090 | 50 | 30.2 | 47% | 29.79 | 0.0 | |||||||
| 05 | 19:15 | NW 6 | 10.00 | Overcast | OVC090 | 50 | 30.2 | 47% | 48 | 29.8 | 0.0 | ||||||
| 05 | 18:55 | NW 5 | 10.00 | Overcast | OVC100 | 50 | 30.2 | 47% | 49 | 29.79 | 0.0 | ||||||
| 05 | 18:35 | NW 8 | 10.00 | Mostly Cloudy | BKN110 | 50 | 30.2 | 47% | 47 | 29.79 | 0.0 | ||||||
| 05 | 18:15 | NW 8 | 10.00 | Partly Cloudy | SCT120 | 50 | 30.2 | 47% | 47 | 29.79 | 0.0 | ||||||
| 05 | 17:56 | NW 8 | 10.00 | Mostly Cloudy | FEW070 BKN120 | 50 | 28.4 | 43% | 47 | 29.79 | 0.0 | ||||||
| 05 | 17:35 | NW 10 | 10.00 | Mostly Cloudy | FEW070 BKN120 | 51.8 | 28.4 | 41% | 29.8 | 0.0 | |||||||
| 05 | 17:15 | NW 9 | 10.00 | Partly Cloudy | SCT070 | 51.8 | 32 | 47% | 29.79 | 0.0 | |||||||
| 05 | 16:55 | NW 9 G 20 | 10.00 | Fair | CLR | 51.8 | 33.8 | 50% | 29.78 | 0.0 | |||||||
| 05 | 16:35 | NW 10 | 10.00 | Fair | CLR | 53.6 | 35.6 | 51% | 29.78 | 0.0 | |||||||
| 05 | 16:15 | NW 10 | 10.00 | Partly Cloudy | SCT075 SCT090 | 53.6 | 37.4 | 54% | 29.79 | 0.0 | |||||||
| 05 | 15:55 | NW 9 | 10.00 | Overcast | OVC075 | 53.6 | 37.4 | 54% | 29.79 | 0.0 | |||||||
| 05 | 15:36 | NW 8 | 10.00 | Overcast | OVC075 | 53.6 | 37.4 | 54% | 29.79 | 0.0 | |||||||
| 05 | 15:15 | NW 12 | 10.00 | Overcast | OVC075 | 53.6 | 39.2 | 58% | 29.8 | 0.0 | |||||||
| 05 | 14:55 | W 6 | 10.00 | Overcast | OVC075 | 51.8 | 37.4 | 58% | 29.79 | 0.0 | |||||||
| 05 | 14:35 | W 8 | 10.00 | Overcast | OVC075 | 51.8 | 37.4 | 58% | 29.79 | 0.0 | |||||||
| 05 | 14:15 | W 7 | 10.00 | Overcast | FEW050 OVC075 | 51.8 | 37.4 | 58% | 29.79 | 0.0 | |||||||
| 05 | 13:55 | W 8 | 10.00 | Overcast | OVC075 | 51.8 | 39.2 | 52.9 | 44.6 | 62% | 29.8 | 0.0 | |||||
| 05 | 13:35 | NW 9 | 10.00 | Overcast | OVC075 | 51.8 | 37.4 | 58% | 29.79 | 0.0 | |||||||
| 05 | 13:16 | W 8 | 10.00 | Overcast | OVC075 | 50 | 37.4 | 62% | 47 | 29.79 | 0.0 | ||||||
| 05 | 12:55 | W 9 | 10.00 | Mostly Cloudy | BKN085 | 50 | 39.2 | 67% | 47 | 29.78 | 0.0 | ||||||
| 05 | 12:35 | Vrbl 5 | 10.00 | Overcast | OVC085 | 48.2 | 39.2 | 71% | 47 | 29.77 | 0.0 | ||||||
| 05 | 12:15 | NW 6 | 10.00 | Overcast | OVC095 | 46.4 | 39.2 | 76% | 44 | 29.78 | 0.0 | ||||||
| 05 | 11:55 | NW 6 | 10.00 | Light Rain | OVC085 | 44.6 | 39.2 | 81% | 42 | 29.78 | 0.0 | 0.01 | |||||
| 05 | 11:35 | NW 7 | 10.00 | Light Rain | OVC085 | 44.6 | 42.8 | 93% | 41 | 29.78 | 0.0 | ||||||
| 05 | 11:15 | NW 8 | 10.00 | Light Rain | FEW065 OVC080 | 44.6 | 42.8 | 93% | 41 | 29.79 | 0.0 | ||||||
| 05 | 10:56 | NW 6 | 9.00 | Light Rain | BKN075 OVC085 | 44.6 | 41 | 87% | 42 | 29.8 | 0.0 | ||||||
| 05 | 10:35 | NW 12 | 10.00 | Light Drizzle | OVC075 | 46.4 | 41 | 82% | 42 | 29.79 | 0.0 | ||||||
| 05 | 10:15 | NW 14 | 10.00 | Overcast | OVC085 | 48.2 | 39.2 | 71% | 43 | 29.78 | 0.0 | ||||||
| 05 | 09:55 | NW 9 | 10.00 | Overcast | OVC085 | 50 | 39.2 | 67% | 47 | 29.76 | 0.0 | ||||||
| 05 | 09:35 | NW 10 | 10.00 | Mostly Cloudy | BKN085 | 51.8 | 37.4 | 58% | 29.76 | 0.0 | |||||||
| 05 | 09:15 | NW 13 | 10.00 | Fair | CLR | 51.8 | 39.2 | 62% | 29.73 | 0.0 | |||||||
| 05 | 08:55 | NW 12 G 16 | 10.00 | Partly Cloudy | SCT090 | 51.8 | 39.2 | 62% | 29.72 | 0.0 | |||||||
| 05 | 08:36 | W 9 | 10.00 | Mostly Cloudy | BKN090 | 51.8 | 39.2 | 62% | 29.73 | 0.0 | |||||||
| 05 | 08:15 | W 8 | 10.00 | Mostly Cloudy | BKN080 | 51.8 | 41 | 67% | 29.69 | 0.0 | |||||||
| 05 | 07:55 | W 5 | 10.00 | Partly Cloudy | SCT090 | 51.8 | 41 | 56.8 | 50.7 | 67% | 29.68 | 0.0 | |||||
| 05 | 07:35 | NW 6 | 10.00 | Overcast | OVC090 | 51.8 | 39.2 | 62% | 29.68 | 0.0 | |||||||
| 05 | 07:15 | NW 8 | 10.00 | Overcast | OVC090 | 51.8 | 39.2 | 62% | 29.68 | 0.0 | |||||||
| Date | Time (edt) | Wind (mph) | Vis. (mi.) | Weather | Sky Cond. | Air | Dwpt | Max. | Min. | Relative Humidity | Wind Chill (°F) | Heat Index (°F) | altimeter (in) | sea level (mb) | 1 hr | 3 hr | 6 hr |
| 6 hour | |||||||||||||||||
| Temperature (ºF) | Pressure | Precipitation (in) | |||||||||||||||